Time;durP1;ratioP1;P1;durP2;ratioP2;P2;SDS_P1;SDS_P2;PMS_P1;PMS_P2;Temp;Humidity;BMP_temperature;BMP_pressure;BME280_temperature;BME280_humidity;BME280_pressure;Samples;Min_cycle;Max_cycle;Signal;HPM_P1;HPM_P2
2024/01/25 00:00:06;;;;;;;14.75;3.80;;;19.70;54.60;;;;;;5104719;28;20443;-52
2024/01/25 00:02:32;;;;;;;13.05;3.45;;;19.70;54.80;;;;;;5105186;28;20139;-54
2024/01/25 00:04:58;;;;;;;11.57;3.50;;;19.70;54.60;;;;;;5107000;28;20123;-56
2024/01/25 00:07:23;;;;;;;10.00;3.33;;;19.70;55.20;;;;;;5106440;28;20028;-56
2024/01/25 00:09:49;;;;;;;15.55;2.95;;;19.70;54.90;;;;;;5098256;28;20690;-56
2024/01/25 00:12:15;;;;;;;12.95;3.53;;;19.70;54.60;;;;;;5105061;28;20534;-52
2024/01/25 00:14:41;;;;;;;11.88;3.42;;;19.70;54.50;;;;;;5104975;28;20051;-54
2024/01/25 00:17:06;;;;;;;14.75;3.20;;;19.70;54.60;;;;;;5104158;28;20032;-57
2024/01/25 00:19:35;;;;;;;11.10;3.58;;;19.70;55.00;;;;;;5104447;28;20519;-53
2024/01/25 00:22:01;;;;;;;13.30;3.40;;;19.70;54.80;;;;;;5104497;28;20035;-48
2024/01/25 00:24:26;;;;;;;10.65;2.95;;;19.70;54.90;;;;;;5104969;28;20402;-52
2024/01/25 00:26:52;;;;;;;12.68;3.17;;;19.70;55.10;;;;;;5104191;28;20145;-56
2024/01/25 00:29:18;;;;;;;11.80;3.47;;;19.70;55.10;;;;;;5104169;28;20032;-52
2024/01/25 00:31:44;;;;;;;14.25;2.90;;;19.60;54.90;;;;;;5104658;28;20020;-56
2024/01/25 00:34:10;;;;;;;11.18;3.55;;;19.70;54.60;;;;;;5101712;28;20077;-49
2024/01/25 00:36:36;;;;;;;13.15;3.38;;;19.70;55.10;;;;;;5103546;28;20034;-54
2024/01/25 00:39:03;;;;;;;12.40;3.30;;;19.70;56.00;;;;;;5103972;28;20036;-48
2024/01/25 00:41:32;;;;;;;12.30;3.60;;;19.70;55.80;;;;;;5091856;28;20556;-50
2024/01/25 00:43:58;;;;;;;13.10;3.47;;;19.70;55.60;;;;;;5091067;28;20063;-51
2024/01/25 00:46:24;;;;;;;17.00;3.88;;;19.70;55.10;;;;;;5088658;28;20024;-49
2024/01/25 00:48:50;;;;;;;14.43;3.30;;;19.70;55.50;;;;;;5090478;28;20066;-49
2024/01/25 00:51:22;;;;;;;12.15;3.25;;;19.70;55.20;;;;;;5094245;28;20024;-49
2024/01/25 00:53:47;;;;;;;16.05;3.38;;;19.70;55.50;;;;;;5094480;28;20145;-51
2024/01/25 00:56:14;;;;;;;14.55;3.15;;;19.70;55.90;;;;;;5094174;28;20057;-50
2024/01/25 00:58:40;;;;;;;13.82;3.55;;;19.60;55.80;;;;;;5094164;28;20502;-51
2024/01/25 01:01:06;;;;;;;13.40;3.20;;;19.60;56.00;;;;;;5093814;28;20110;-46
2024/01/25 01:03:32;;;;;;;13.88;3.58;;;19.60;56.10;;;;;;5094125;28;20509;-49
2024/01/25 01:05:58;;;;;;;9.68;2.92;;;19.60;55.80;;;;;;5093954;28;20028;-50
2024/01/25 01:08:25;;;;;;;12.93;3.10;;;19.60;56.50;;;;;;5093895;28;20475;-53
2024/01/25 01:10:51;;;;;;;8.45;3.00;;;19.60;56.60;;;;;;5093600;28;20080;-57
2024/01/25 01:13:16;;;;;;;9.18;3.10;;;19.60;56.70;;;;;;5094179;28;20107;-53
2024/01/25 01:15:42;;;;;;;12.32;3.40;;;19.60;56.50;;;;;;5093904;28;20032;-52
2024/01/25 01:18:08;;;;;;;9.68;3.17;;;19.60;56.00;;;;;;5094339;28;20032;-53
2024/01/25 01:20:34;;;;;;;11.80;3.22;;;19.60;56.50;;;;;;5093362;28;20028;-49
2024/01/25 01:23:00;;;;;;;7.97;3.30;;;19.60;56.40;;;;;;5093822;28;20085;-52
2024/01/25 01:25:25;;;;;;;9.65;3.25;;;19.60;56.50;;;;;;5093736;28;20054;-49
2024/01/25 01:27:51;;;;;;;11.48;3.53;;;19.60;56.10;;;;;;5093180;28;20020;-49
2024/01/25 01:30:17;;;;;;;20.92;3.70;;;19.60;56.00;;;;;;5093336;28;20058;-52
2024/01/25 01:32:43;;;;;;;18.83;3.08;;;19.60;56.00;;;;;;5093758;28;20032;-53
2024/01/25 01:35:09;;;;;;;27.13;3.40;;;19.50;56.60;;;;;;5093604;28;20036;-52
2024/01/25 01:37:34;;;;;;;12.23;2.97;;;19.50;57.10;;;;;;5093552;28;20027;-54
2024/01/25 01:40:00;;;;;;;13.25;3.28;;;19.50;56.80;;;;;;5092994;28;20032;-49
2024/01/25 01:42:27;;;;;;;10.55;3.35;;;19.60;56.90;;;;;;5093375;28;20030;-52
2024/01/25 01:44:53;;;;;;;13.93;3.63;;;19.60;57.10;;;;;;5093390;28;20043;-55
2024/01/25 01:47:19;;;;;;;14.13;3.88;;;19.60;56.80;;;;;;5093334;28;20020;-49
2024/01/25 01:49:46;;;;;;;15.27;3.45;;;19.60;57.10;;;;;;5092834;28;20032;-50
2024/01/25 01:52:12;;;;;;;9.48;3.17;;;19.60;57.60;;;;;;5092421;28;20103;-50
2024/01/25 01:54:38;;;;;;;11.35;3.47;;;19.60;56.80;;;;;;5093196;28;20051;-49
2024/01/25 01:57:05;;;;;;;10.52;2.95;;;19.60;56.80;;;;;;5093021;28;20479;-48
2024/01/25 01:59:31;;;;;;;13.38;3.17;;;19.60;56.70;;;;;;5092728;28;20402;-51
2024/01/25 02:01:57;;;;;;;11.60;3.50;;;19.60;56.90;;;;;;5093041;28;20028;-49
2024/01/25 02:04:22;;;;;;;14.68;3.28;;;19.60;56.40;;;;;;5092981;28;20394;-49
2024/01/25 02:06:48;;;;;;;11.40;3.50;;;19.60;56.70;;;;;;5092916;28;20024;-48
2024/01/25 02:09:14;;;;;;;10.43;3.10;;;19.60;56.80;;;;;;5092409;28;20043;-49
2024/01/25 02:11:40;;;;;;;13.35;3.50;;;19.60;57.20;;;;;;5091873;28;20101;-48
2024/01/25 02:14:10;;;;;;;8.15;2.80;;;19.50;57.60;;;;;;5092844;28;20497;-51
2024/01/25 02:16:36;;;;;;;13.70;3.15;;;19.50;56.20;;;;;;5092773;28;20020;-48
2024/01/25 02:19:02;;;;;;;10.88;2.95;;;19.60;56.90;;;;;;5092318;28;20606;-49
2024/01/25 02:21:27;;;;;;;11.60;3.28;;;19.50;56.90;;;;;;5092704;28;20395;-52
2024/01/25 02:23:53;;;;;;;10.50;3.30;;;19.50;57.00;;;;;;5091453;28;20554;-51
2024/01/25 02:26:19;;;;;;;7.03;2.80;;;19.50;56.90;;;;;;5092624;28;20502;-49
2024/01/25 02:28:45;;;;;;;10.00;2.90;;;19.50;57.30;;;;;;5092144;28;20032;-52
2024/01/25 02:31:11;;;;;;;11.77;3.10;;;19.50;57.40;;;;;;5092340;28;20035;-49
2024/01/25 02:33:36;;;;;;;11.10;3.03;;;19.50;56.90;;;;;;5092555;28;20043;-49
2024/01/25 02:36:02;;;;;;;13.32;3.20;;;19.50;56.20;;;;;;5092370;28;20031;-52
2024/01/25 02:38:28;;;;;;;10.75;3.10;;;19.50;56.80;;;;;;5092136;28;20111;-52
2024/01/25 02:40:54;;;;;;;11.43;3.00;;;19.50;56.20;;;;;;5091929;28;20020;-51
2024/01/25 02:43:20;;;;;;;13.60;3.50;;;19.50;57.00;;;;;;5091938;28;20028;-52
2024/01/25 02:45:46;;;;;;;14.32;3.67;;;19.50;57.20;;;;;;5092444;28;20024;-55
2024/01/25 02:48:11;;;;;;;7.75;2.70;;;19.50;56.90;;;;;;5092043;28;20391;-51
2024/01/25 02:50:37;;;;;;;13.40;3.00;;;19.50;57.70;;;;;;5091719;28;20103;-51
2024/01/25 02:53:03;;;;;;;10.93;3.47;;;19.50;57.20;;;;;;5092102;28;20024;-50
2024/01/25 02:55:29;;;;;;;8.80;2.58;;;19.50;56.60;;;;;;5092091;28;20035;-50
2024/01/25 02:57:54;;;;;;;10.82;3.10;;;19.50;56.80;;;;;;5092021;28;20016;-57
2024/01/25 03:00:20;;;;;;;12.55;3.10;;;19.50;57.80;;;;;;5091563;28;20028;-56
2024/01/25 03:02:46;;;;;;;13.20;3.13;;;19.50;57.60;;;;;;5091691;28;20020;-52
2024/01/25 03:05:12;;;;;;;9.82;2.83;;;19.50;57.60;;;;;;5091899;28;20521;-49
2024/01/25 03:07:38;;;;;;;10.32;2.65;;;19.50;57.20;;;;;;5091761;28;20024;-49
2024/01/25 03:10:04;;;;;;;8.57;3.28;;;19.50;56.60;;;;;;5091367;28;20028;-56
2024/01/25 03:12:30;;;;;;;8.73;2.83;;;19.50;57.30;;;;;;5091801;28;20401;-57
2024/01/25 03:14:55;;;;;;;12.45;2.90;;;19.50;57.10;;;;;;5091901;28;20103;-55
2024/01/25 03:17:21;;;;;;;7.38;2.35;;;19.50;56.90;;;;;;5091766;28;20051;-56
2024/01/25 03:19:48;;;;;;;11.07;3.05;;;19.50;57.10;;;;;;5091358;28;20024;-56
2024/01/25 03:22:14;;;;;;;9.40;2.90;;;19.50;56.50;;;;;;5091573;28;20032;-57
2024/01/25 03:24:39;;;;;;;8.73;2.63;;;19.50;57.70;;;;;;5091569;28;20032;-55
2024/01/25 03:27:05;;;;;;;6.65;2.70;;;19.50;56.70;;;;;;5091648;28;20035;-57
2024/01/25 03:29:31;;;;;;;6.75;2.55;;;19.50;57.20;;;;;;5091132;28;20032;-57
2024/01/25 03:31:57;;;;;;;8.88;3.00;;;19.50;57.00;;;;;;5091584;28;20032;-56
2024/01/25 03:34:23;;;;;;;11.05;2.97;;;19.50;56.10;;;;;;5091753;28;20020;-56
2024/01/25 03:36:50;;;;;;;10.88;2.50;;;19.50;56.70;;;;;;5091496;28;20031;-51
2024/01/25 03:39:17;;;;;;;11.88;3.17;;;19.50;56.60;;;;;;5090990;28;20518;-54
2024/01/25 03:41:42;;;;;;;11.80;3.17;;;19.50;56.30;;;;;;5091514;28;20032;-53
2024/01/25 03:44:08;;;;;;;12.55;3.13;;;19.50;55.80;;;;;;5091658;28;20027;-57
2024/01/25 03:46:34;;;;;;;12.15;3.25;;;19.50;55.60;;;;;;5091406;28;20029;-55
2024/01/25 03:49:00;;;;;;;10.88;3.72;;;19.50;55.70;;;;;;5090973;28;20116;-53
2024/01/25 03:51:26;;;;;;;14.38;3.33;;;19.50;55.80;;;;;;5088920;28;20052;-57
2024/01/25 03:53:52;;;;;;;15.50;3.28;;;19.50;56.10;;;;;;5091136;28;20016;-50
2024/01/25 03:56:18;;;;;;;11.85;3.35;;;19.50;55.90;;;;;;5091362;28;20115;-57
2024/01/25 03:58:45;;;;;;;12.00;3.53;;;19.50;55.60;;;;;;5091297;28;20103;-52
2024/01/25 04:01:10;;;;;;;11.52;3.20;;;19.50;55.60;;;;;;5091201;28;20028;-56
2024/01/25 04:03:36;;;;;;;8.98;3.20;;;19.50;55.60;;;;;;5091317;28;20085;-52
2024/01/25 04:06:02;;;;;;;8.90;2.80;;;19.50;55.70;;;;;;5091274;28;20031;-54
2024/01/25 04:08:28;;;;;;;11.88;3.28;;;19.50;55.80;;;;;;5091098;28;20050;-56
2024/01/25 04:10:53;;;;;;;10.20;3.13;;;19.50;55.60;;;;;;5090910;28;20068;-55
2024/01/25 04:13:19;;;;;;;10.25;3.20;;;19.50;55.80;;;;;;5091295;28;20020;-58
2024/01/25 04:15:45;;;;;;;12.20;3.15;;;19.50;55.70;;;;;;5092929;28;20074;-49
2024/01/25 04:18:11;;;;;;;8.55;3.05;;;19.50;56.30;;;;;;5095048;28;20055;-57
2024/01/25 04:20:36;;;;;;;10.68;3.50;;;19.50;56.10;;;;;;5094535;28;20024;-51
2024/01/25 04:23:02;;;;;;;9.38;3.22;;;19.50;56.00;;;;;;5094842;28;20024;-52
2024/01/25 04:25:28;;;;;;;8.85;3.03;;;19.50;55.80;;;;;;5093610;28;20148;-51
2024/01/25 04:27:54;;;;;;;11.85;3.20;;;19.50;56.50;;;;;;5094822;28;20026;-54
2024/01/25 04:30:20;;;;;;;10.50;3.35;;;19.50;56.20;;;;;;5094365;28;20028;-50
2024/01/25 04:32:46;;;;;;;8.02;2.88;;;19.50;55.90;;;;;;5094723;28;20056;-52
2024/01/25 04:35:11;;;;;;;9.05;2.90;;;19.50;55.90;;;;;;5094740;28;20051;-50
2024/01/25 04:37:37;;;;;;;9.50;3.25;;;19.50;56.10;;;;;;5094608;28;20383;-51
2024/01/25 04:40:05;;;;;;;11.90;3.20;;;19.50;56.30;;;;;;5094148;28;20089;-54
2024/01/25 04:42:30;;;;;;;10.38;3.13;;;19.50;56.30;;;;;;5094571;28;20024;-57
2024/01/25 04:44:56;;;;;;;14.85;3.35;;;19.50;56.60;;;;;;5094629;28;20561;-50
2024/01/25 04:47:22;;;;;;;10.07;2.85;;;19.50;57.50;;;;;;5094521;28;20107;-56
2024/01/25 04:49:48;;;;;;;11.20;3.35;;;19.50;56.10;;;;;;5093969;28;20062;-55
2024/01/25 04:52:14;;;;;;;10.57;3.15;;;19.50;57.20;;;;;;5094343;28;20028;-54
2024/01/25 04:54:40;;;;;;;12.13;3.33;;;19.50;56.70;;;;;;5094439;28;20024;-57
2024/01/25 04:57:06;;;;;;;15.02;3.45;;;19.50;56.90;;;;;;5094379;28;20028;-51
2024/01/25 04:59:33;;;;;;;10.98;3.97;;;19.50;56.80;;;;;;5093853;28;20525;-57
2024/01/25 05:01:59;;;;;;;12.55;3.13;;;19.50;57.60;;;;;;5094189;28;20028;-53
2024/01/25 05:04:25;;;;;;;10.23;3.13;;;19.50;57.00;;;;;;5094095;28;20502;-54
2024/01/25 05:06:51;;;;;;;13.77;3.40;;;19.50;57.00;;;;;;5094068;28;20036;-52
2024/01/25 05:09:17;;;;;;;13.63;3.22;;;19.50;57.30;;;;;;5093637;28;20051;-56
2024/01/25 05:11:42;;;;;;;14.68;3.58;;;19.50;57.30;;;;;;5094050;28;20036;-56
2024/01/25 05:14:08;;;;;;;12.05;3.33;;;19.50;57.90;;;;;;5094006;28;20026;-57
2024/01/25 05:16:35;;;;;;;17.75;4.25;;;19.40;57.50;;;;;;5094060;28;20020;-54
2024/01/25 05:19:01;;;;;;;9.25;3.42;;;19.50;57.70;;;;;;5093456;28;20024;-57
2024/01/25 05:21:27;;;;;;;12.38;3.20;;;19.40;58.00;;;;;;5093778;28;20020;-57
2024/01/25 05:23:53;;;;;;;11.00;3.28;;;19.40;58.00;;;;;;5093805;28;20036;-54
2024/01/25 05:26:19;;;;;;;13.20;4.30;;;19.40;58.10;;;;;;5093646;28;20024;-55
2024/01/25 05:28:45;;;;;;;14.88;3.55;;;19.40;57.50;;;;;;5093558;28;20391;-57
2024/01/25 05:31:12;;;;;;;11.10;3.60;;;19.40;57.50;;;;;;5093546;28;20111;-55
2024/01/25 05:33:39;;;;;;;10.18;3.60;;;19.40;57.20;;;;;;5093584;28;20034;-57
2024/01/25 05:36:08;;;;;;;10.43;3.75;;;19.40;57.10;;;;;;5093726;28;20419;-49
2024/01/25 05:38:34;;;;;;;10.70;2.90;;;19.40;57.30;;;;;;5093489;28;20483;-57
2024/01/25 05:40:59;;;;;;;11.00;3.88;;;19.40;58.10;;;;;;5093143;28;20054;-56
2024/01/25 05:43:25;;;;;;;9.38;3.13;;;19.40;58.00;;;;;;5093526;28;20028;-51
2024/01/25 05:45:51;;;;;;;15.15;3.78;;;19.40;57.20;;;;;;5093398;28;20020;-51
2024/01/25 05:48:17;;;;;;;13.77;3.83;;;19.40;58.10;;;;;;5093179;28;20028;-50
2024/01/25 05:50:43;;;;;;;10.35;3.30;;;19.40;57.50;;;;;;5092863;28;20103;-51
2024/01/25 05:53:09;;;;;;;11.43;4.15;;;19.40;57.40;;;;;;5093166;28;20115;-52
2024/01/25 05:55:34;;;;;;;11.18;3.50;;;19.40;56.90;;;;;;5093297;28;20028;-52
2024/01/25 05:58:00;;;;;;;10.20;3.63;;;19.40;57.20;;;;;;5093313;28;20521;-55
2024/01/25 06:00:28;;;;;;;15.48;3.92;;;19.40;57.30;;;;;;5092713;28;20031;-55
2024/01/25 06:02:54;;;;;;;8.45;3.20;;;19.40;57.40;;;;;;5093017;28;20028;-56
2024/01/25 06:05:20;;;;;;;10.27;3.28;;;19.40;57.60;;;;;;5092991;28;20107;-53
2024/01/25 06:07:45;;;;;;;10.07;3.20;;;19.40;58.00;;;;;;5093009;28;20028;-57
2024/01/25 06:10:11;;;;;;;12.25;3.88;;;19.30;57.80;;;;;;5092487;28;20031;-57
2024/01/25 06:12:37;;;;;;;11.55;3.83;;;19.40;58.40;;;;;;5092867;28;20030;-57
2024/01/25 06:15:03;;;;;;;14.57;4.22;;;19.40;57.70;;;;;;5092769;28;20020;-52
2024/01/25 06:17:30;;;;;;;13.63;4.00;;;19.40;57.40;;;;;;5092917;28;20020;-53
2024/01/25 06:19:56;;;;;;;10.13;3.28;;;19.40;56.90;;;;;;5092283;28;20498;-54
2024/01/25 06:22:22;;;;;;;12.60;3.63;;;19.40;58.10;;;;;;5092659;28;20035;-54
2024/01/25 06:24:48;;;;;;;12.65;3.78;;;19.40;57.60;;;;;;5092637;28;20085;-56
2024/01/25 06:27:13;;;;;;;10.02;3.67;;;19.40;57.30;;;;;;5092551;28;20030;-54
2024/01/25 06:29:39;;;;;;;14.38;3.55;;;19.40;56.80;;;;;;5092087;28;20027;-54
2024/01/25 06:32:06;;;;;;;12.05;4.10;;;19.40;56.60;;;;;;5092472;28;20024;-54
2024/01/25 06:34:32;;;;;;;11.80;3.80;;;19.40;56.50;;;;;;5092636;28;20245;-52
2024/01/25 06:36:58;;;;;;;15.45;4.60;;;19.40;57.40;;;;;;5092612;28;20364;-55
2024/01/25 06:39:23;;;;;;;10.70;3.55;;;19.40;56.80;;;;;;5091499;28;20035;-49
2024/01/25 06:41:49;;;;;;;14.25;3.80;;;19.40;56.80;;;;;;5092289;28;20550;-59
2024/01/25 06:44:16;;;;;;;10.65;3.80;;;19.40;56.40;;;;;;5092251;28;20467;-58
2024/01/25 06:46:42;;;;;;;11.02;3.78;;;19.40;57.50;;;;;;5092241;28;20255;-57
2024/01/25 06:49:08;;;;;;;10.85;3.58;;;19.40;57.10;;;;;;5091716;28;20265;-58
2024/01/25 06:51:34;;;;;;;13.52;3.67;;;19.40;57.50;;;;;;5092141;28;20028;-58
2024/01/25 06:54:00;;;;;;;14.07;3.90;;;19.40;57.60;;;;;;5092113;28;20028;-57
2024/01/25 06:56:26;;;;;;;14.70;4.05;;;19.40;57.30;;;;;;5092121;28;20020;-56
2024/01/25 06:58:51;;;;;;;12.77;3.45;;;19.40;57.60;;;;;;5091905;28;20024;-58
2024/01/25 07:01:24;;;;;;;13.75;3.88;;;19.40;57.20;;;;;;5092160;28;20024;-57
2024/01/25 07:03:50;;;;;;;10.88;3.40;;;19.40;57.30;;;;;;5091333;28;20028;-57
2024/01/25 07:06:18;;;;;;;13.73;3.95;;;19.40;57.60;;;;;;5091960;28;20028;-58
2024/01/25 07:08:44;;;;;;;11.05;3.78;;;19.40;57.10;;;;;;5091765;28;20425;-59
2024/01/25 07:11:10;;;;;;;10.88;3.70;;;19.40;57.20;;;;;;5091717;28;20070;-59
2024/01/25 07:13:36;;;;;;;12.65;3.80;;;19.40;55.50;;;;;;5091853;28;20112;-50
2024/01/25 07:16:01;;;;;;;10.95;3.72;;;19.40;54.90;;;;;;5091680;28;20503;-52
2024/01/25 07:18:27;;;;;;;12.48;4.07;;;19.50;55.40;;;;;;5091437;28;20024;-58
2024/01/25 07:20:53;;;;;;;11.07;3.53;;;19.50;55.00;;;;;;5091414;28;20491;-58
2024/01/25 07:23:22;;;;;;;12.50;4.30;;;19.50;55.10;;;;;;5091675;28;20390;-55
2024/01/25 07:25:47;;;;;;;11.85;3.95;;;19.50;54.90;;;;;;5091656;28;20111;-56
2024/01/25 07:28:13;;;;;;;15.40;4.00;;;19.50;55.10;;;;;;5091428;28;20107;-51
2024/01/25 07:30:39;;;;;;;20.83;4.00;;;19.50;56.60;;;;;;5091057;28;20042;-56
2024/01/25 07:33:05;;;;;;;15.00;3.80;;;19.50;57.60;;;;;;5091851;28;20050;-56
2024/01/25 07:35:31;;;;;;;12.45;3.40;;;19.60;56.70;;;;;;5091689;28;20055;-54
2024/01/25 07:37:57;;;;;;;16.75;3.83;;;19.60;56.00;;;;;;5091521;28;20145;-58
2024/01/25 07:40:23;;;;;;;22.38;4.55;;;19.60;56.00;;;;;;5091255;28;20053;-49
2024/01/25 07:42:49;;;;;;;17.48;3.35;;;19.70;56.70;;;;;;5091522;28;20024;-52
2024/01/25 07:45:15;;;;;;;11.25;3.45;;;19.70;56.30;;;;;;5091452;28;20043;-51
2024/01/25 07:47:42;;;;;;;18.58;4.10;;;19.70;56.40;;;;;;5091409;28;20036;-54
2024/01/25 07:50:08;;;;;;;11.48;3.60;;;19.80;57.60;;;;;;5091612;28;20522;-52
2024/01/25 07:52:34;;;;;;;12.13;3.60;;;19.80;58.90;;;;;;5095480;28;20020;-50
2024/01/25 07:54:59;;;;;;;14.98;4.78;;;19.80;58.50;;;;;;5095425;28;20605;-56
2024/01/25 07:57:25;;;;;;;12.82;4.03;;;19.80;57.50;;;;;;5095337;28;20046;-55
2024/01/25 18:49:14;;;;;;;11.82;4.22;;;19.40;52.60;;;;;;5113699;27;20449;-53
2024/01/25 18:51:40;;;;;;;11.05;4.65;;;19.60;53.20;;;;;;5122361;22;20570;-60
2024/01/25 18:54:08;;;;;;;11.73;4.30;;;19.70;53.50;;;;;;5037285;28;20071;-59
2024/01/25 18:56:35;;;;;;;10.35;4.22;;;19.80;53.20;;;;;;5056299;28;20092;-59
2024/01/25 18:59:01;;;;;;;15.02;5.10;;;19.80;53.20;;;;;;5059069;28;20046;-59
2024/01/25 19:01:27;;;;;;;13.05;5.28;;;19.80;53.40;;;;;;5067550;28;20029;-59
2024/01/25 19:03:53;;;;;;;13.60;7.00;;;19.80;53.50;;;;;;5049472;28;20028;-59
2024/01/25 19:06:19;;;;;;;16.23;6.78;;;19.80;53.60;;;;;;5051612;28;20025;-58
2024/01/25 19:08:45;;;;;;;15.50;7.43;;;19.80;54.50;;;;;;5040880;28;20112;-59
2024/01/25 19:11:11;;;;;;;13.63;5.85;;;19.80;55.20;;;;;;5058117;28;20084;-59
2024/01/25 19:13:37;;;;;;;13.60;5.50;;;19.80;54.50;;;;;;5048735;28;20021;-60
2024/01/25 19:16:03;;;;;;;13.90;6.22;;;19.80;54.30;;;;;;5044832;28;20128;-58
2024/01/25 19:18:29;;;;;;;12.32;5.55;;;19.80;54.50;;;;;;5045471;28;20078;-59
2024/01/25 19:20:55;;;;;;;13.25;5.47;;;19.80;54.50;;;;;;5047657;28;20032;-59
2024/01/25 19:23:21;;;;;;;11.48;5.68;;;19.80;55.10;;;;;;5054144;28;20024;-59
2024/01/25 19:25:46;;;;;;;13.43;5.60;;;19.70;54.50;;;;;;5043380;28;20022;-59
2024/01/25 19:28:12;;;;;;;13.45;5.68;;;19.70;54.70;;;;;;5043467;28;20499;-59
2024/01/25 19:30:38;;;;;;;16.48;5.43;;;19.70;55.00;;;;;;5049101;28;20152;-59
2024/01/25 19:33:04;;;;;;;15.07;5.35;;;19.70;54.80;;;;;;5044498;28;20116;-59
2024/01/25 19:35:30;;;;;;;13.55;5.40;;;19.70;54.40;;;;;;5042872;28;20090;-58
2024/01/25 19:37:56;;;;;;;12.15;5.00;;;19.70;54.50;;;;;;5050610;28;20025;-59
2024/01/25 19:40:21;;;;;;;11.75;4.85;;;19.70;54.40;;;;;;5056345;28;20531;-59
2024/01/25 19:42:49;;;;;;;12.60;5.07;;;19.70;55.00;;;;;;5048832;28;20029;-59
2024/01/25 19:45:15;;;;;;;13.13;5.40;;;19.70;55.20;;;;;;5060599;28;20083;-58
2024/01/25 19:47:41;;;;;;;9.45;4.63;;;19.70;55.30;;;;;;5043498;28;20239;-59
2024/01/25 19:50:07;;;;;;;13.30;4.85;;;19.70;55.40;;;;;;5036429;28;20138;-59
2024/01/25 19:52:33;;;;;;;11.02;3.95;;;19.70;55.40;;;;;;5030495;28;20025;-58
2024/01/25 19:54:59;;;;;;;9.98;4.35;;;19.70;55.50;;;;;;5030124;28;20044;-57
2024/01/25 19:57:25;;;;;;;12.85;4.50;;;19.70;55.60;;;;;;5029988;28;20083;-58
2024/01/25 19:59:52;;;;;;;14.32;4.88;;;19.70;55.40;;;;;;5035223;28;20032;-59
2024/01/25 20:02:18;;;;;;;11.30;4.32;;;19.60;55.00;;;;;;5049176;28;20021;-59
2024/01/25 20:04:44;;;;;;;10.73;4.55;;;19.70;54.70;;;;;;5028313;28;20435;-57
2024/01/25 20:07:10;;;;;;;9.15;4.13;;;19.70;54.80;;;;;;5034416;28;20029;-57
2024/01/25 20:09:36;;;;;;;11.20;4.70;;;19.70;54.20;;;;;;5043203;28;20032;-59
2024/01/25 20:12:02;;;;;;;11.52;4.50;;;19.70;54.40;;;;;;5030515;28;20041;-59
2024/01/25 20:14:28;;;;;;;11.23;4.43;;;19.80;54.50;;;;;;5033568;28;20056;-55
2024/01/25 20:16:53;;;;;;;10.02;4.00;;;19.80;54.70;;;;;;5030736;28;20045;-57
2024/01/25 20:19:19;;;;;;;9.27;4.20;;;19.80;54.40;;;;;;5035320;28;20029;-56
2024/01/25 20:21:45;;;;;;;11.52;4.47;;;19.80;54.40;;;;;;5035254;28;20021;-58
2024/01/25 20:24:11;;;;;;;10.68;4.65;;;19.90;55.10;;;;;;5027356;28;20482;-59
2024/01/25 20:26:37;;;;;;;12.90;4.50;;;19.90;55.00;;;;;;5046738;28;20025;-57
2024/01/25 20:29:03;;;;;;;12.82;4.47;;;19.90;55.10;;;;;;5044139;28;20408;-58
2024/01/25 20:31:28;;;;;;;11.23;4.65;;;19.90;54.90;;;;;;5051416;28;20051;-57
2024/01/25 20:33:54;;;;;;;9.57;3.97;;;20.00;54.90;;;;;;5053516;28;20020;-58
2024/01/25 20:36:20;;;;;;;8.98;3.88;;;20.00;55.00;;;;;;5052411;28;20036;-59
2024/01/25 20:38:46;;;;;;;11.88;4.05;;;20.00;55.00;;;;;;5039890;28;20518;-59
2024/01/25 20:41:11;;;;;;;11.77;4.28;;;20.00;55.10;;;;;;5046285;28;20033;-58
2024/01/25 20:43:38;;;;;;;20.20;4.65;;;20.00;54.80;;;;;;5033353;28;20029;-57
2024/01/25 20:46:04;;;;;;;18.45;4.05;;;20.10;54.80;;;;;;5015767;28;20396;-57
2024/01/25 20:48:29;;;;;;;13.65;4.50;;;20.10;54.70;;;;;;5033065;28;20082;-56
2024/01/25 20:50:55;;;;;;;11.98;3.88;;;20.10;54.80;;;;;;5028411;28;20029;-54
2024/01/25 20:53:21;;;;;;;9.55;3.58;;;20.10;54.90;;;;;;5029489;28;20037;-57
2024/01/25 20:55:47;;;;;;;13.23;4.47;;;20.10;54.80;;;;;;5034578;28;20116;-55
2024/01/25 20:58:13;;;;;;;15.05;4.30;;;20.10;54.80;;;;;;5041129;28;20040;-55
2024/01/25 21:00:39;;;;;;;12.52;4.35;;;20.00;54.40;;;;;;5043428;28;20599;-57
2024/01/25 21:03:05;;;;;;;16.10;4.97;;;20.10;55.30;;;;;;4997762;28;20405;-57
2024/01/25 21:05:31;;;;;;;11.52;4.10;;;20.10;55.20;;;;;;5036124;28;20408;-59
2024/01/25 21:07:57;;;;;;;12.63;4.63;;;20.10;55.70;;;;;;5040682;28;20036;-57
2024/01/25 21:10:23;;;;;;;25.55;4.72;;;20.10;55.20;;;;;;5049279;28;20029;-58
2024/01/25 21:12:50;;;;;;;22.60;5.28;;;20.20;55.10;;;;;;5048478;28;20496;-56
2024/01/25 21:15:16;;;;;;;12.27;4.47;;;20.20;55.10;;;;;;5039745;28;20025;-54
2024/01/25 21:17:41;;;;;;;15.07;4.30;;;20.10;55.20;;;;;;5029589;28;20614;-56
2024/01/25 21:20:08;;;;;;;15.32;4.47;;;20.20;55.30;;;;;;5036583;28;20071;-55
2024/01/25 21:22:34;;;;;;;14.65;4.57;;;20.10;55.50;;;;;;5049367;28;20040;-54
2024/01/25 21:25:01;;;;;;;14.25;4.55;;;20.10;55.50;;;;;;5048625;28;20029;-57
2024/01/25 21:27:26;;;;;;;12.65;4.43;;;20.10;55.40;;;;;;5047544;28;20040;-56
2024/01/25 21:29:56;;;;;;;15.57;4.47;;;20.10;55.00;;;;;;5048856;28;20041;-54
2024/01/25 21:32:22;;;;;;;19.05;4.78;;;20.10;55.40;;;;;;5038233;28;20404;-58
2024/01/25 21:34:48;;;;;;;10.70;3.55;;;20.20;55.90;;;;;;5038079;28;20030;-54
2024/01/25 21:37:13;;;;;;;14.60;4.25;;;20.20;56.40;;;;;;5030359;28;20041;-58
2024/01/25 21:39:39;;;;;;;13.80;4.68;;;20.20;57.00;;;;;;5032910;28;20028;-57
2024/01/25 21:42:05;;;;;;;13.82;4.80;;;20.20;57.70;;;;;;5040465;28;20031;-56
2024/01/25 21:44:31;;;;;;;17.35;7.55;;;20.30;58.60;;;;;;5047950;28;20021;-53
2024/01/25 21:46:56;;;;;;;15.48;6.80;;;20.50;60.10;;;;;;5047774;28;20025;-56
2024/01/25 21:49:22;;;;;;;17.48;6.93;;;20.60;58.50;;;;;;5047726;28;20032;-58
2024/01/25 21:51:48;;;;;;;17.42;6.10;;;20.60;58.10;;;;;;5040702;28;20116;-57
2024/01/25 21:54:14;;;;;;;15.90;6.13;;;20.60;57.40;;;;;;5035342;28;20025;-58
2024/01/25 21:56:40;;;;;;;13.63;6.03;;;20.60;57.00;;;;;;5030141;28;20065;-59
2024/01/25 21:59:06;;;;;;;18.35;6.03;;;20.60;56.80;;;;;;5030103;28;20040;-57
2024/01/25 22:01:32;;;;;;;18.55;6.55;;;20.50;56.80;;;;;;5032943;28;20028;-56
2024/01/25 22:03:58;;;;;;;13.23;5.75;;;20.50;56.90;;;;;;5040952;28;20488;-54
2024/01/25 22:06:24;;;;;;;17.25;5.97;;;20.50;56.90;;;;;;5043106;28;20132;-52
2024/01/25 22:08:49;;;;;;;14.93;6.00;;;20.40;57.00;;;;;;5037344;28;20053;-56
2024/01/25 22:11:15;;;;;;;16.50;5.85;;;20.40;57.00;;;;;;5039950;28;20386;-55
2024/01/25 22:13:41;;;;;;;17.45;6.60;;;20.30;57.00;;;;;;5037215;28;20048;-56
2024/01/25 22:16:07;;;;;;;19.98;6.68;;;20.30;57.00;;;;;;5028779;28;20390;-58
2024/01/25 22:18:34;;;;;;;14.95;5.40;;;20.30;57.10;;;;;;5017130;28;20029;-58
2024/01/25 22:21:00;;;;;;;13.57;5.72;;;20.20;57.00;;;;;;5039369;28;20032;-57
2024/01/25 22:23:27;;;;;;;16.75;6.60;;;20.20;57.20;;;;;;5047292;28;20025;-56
2024/01/25 22:25:53;;;;;;;15.27;6.05;;;20.20;57.10;;;;;;5029935;28;20029;-58
2024/01/25 22:28:19;;;;;;;15.52;6.00;;;20.20;57.20;;;;;;5036860;28;20056;-58
2024/01/25 22:30:45;;;;;;;16.67;5.75;;;20.20;57.20;;;;;;5038721;28;20034;-58
2024/01/25 22:33:12;;;;;;;11.95;5.18;;;20.10;57.00;;;;;;5046713;28;20025;-57
2024/01/25 22:35:39;;;;;;;11.68;5.43;;;20.10;56.60;;;;;;5046021;28;20507;-54
2024/01/25 22:38:05;;;;;;;12.82;5.38;;;20.10;57.10;;;;;;5045926;28;20028;-54
2024/01/25 22:40:31;;;;;;;11.77;5.45;;;20.10;56.60;;;;;;5028914;28;20417;-57
2024/01/25 22:42:57;;;;;;;13.35;5.60;;;20.10;56.90;;;;;;5037837;28;20017;-55
2024/01/25 22:45:23;;;;;;;13.30;5.70;;;20.10;56.30;;;;;;5034736;28;20045;-56
2024/01/25 22:47:49;;;;;;;11.90;5.30;;;20.10;56.90;;;;;;5039462;28;20519;-57
2024/01/25 22:50:16;;;;;;;11.70;4.88;;;20.10;55.90;;;;;;5036684;28;20100;-57
2024/01/25 22:52:42;;;;;;;12.45;5.28;;;20.00;56.20;;;;;;5037442;28;20129;-53
2024/01/25 22:55:08;;;;;;;15.13;5.72;;;20.00;56.10;;;;;;5042496;28;20025;-56
2024/01/25 22:57:34;;;;;;;12.43;4.90;;;20.00;56.20;;;;;;5042667;28;20028;-55
2024/01/25 23:00:04;;;;;;;15.73;5.60;;;20.00;56.00;;;;;;5042885;28;20079;-55
2024/01/25 23:02:31;;;;;;;13.18;5.55;;;20.00;56.10;;;;;;5044021;28;20028;-59
2024/01/25 23:04:57;;;;;;;11.57;5.22;;;20.00;56.10;;;;;;5045942;28;20033;-54
2024/01/25 23:07:22;;;;;;;10.32;4.20;;;20.00;55.90;;;;;;5042334;28;20029;-55
2024/01/25 23:09:48;;;;;;;13.40;5.30;;;20.00;56.00;;;;;;5040304;28;20034;-57
2024/01/25 23:12:14;;;;;;;12.10;4.93;;;20.00;55.90;;;;;;5039521;28;20030;-55
2024/01/25 23:14:43;;;;;;;13.63;5.00;;;20.00;55.90;;;;;;5033757;28;20029;-56
2024/01/25 23:17:08;;;;;;;11.25;4.57;;;20.00;55.90;;;;;;5043651;28;20116;-58
2024/01/25 23:19:34;;;;;;;15.20;4.95;;;19.90;55.90;;;;;;5044479;28;20096;-57